createdAt,value
2019-02-23T00:01:25.457Z,127.07
2019-02-23T00:03:53.133Z,130.17
2019-02-23T00:06:29.430Z,125.97
2019-02-23T00:08:50.274Z,128.00
2019-02-23T00:11:17.836Z,127.63
2019-02-23T00:13:45.510Z,127.27
2019-02-23T00:16:12.969Z,138.93
2019-02-23T00:18:40.478Z,124.37
2019-02-23T00:21:08.046Z,135.20
2019-02-23T00:23:35.679Z,119.97
2019-02-23T00:26:04.434Z,131.33
2019-02-23T00:28:32.215Z,123.73
2019-02-23T00:30:59.666Z,130.20
2019-02-23T00:33:27.201Z,137.37
2019-02-23T00:35:54.806Z,133.13
2019-02-23T00:38:22.331Z,134.17
2019-02-23T00:40:49.852Z,138.27
2019-02-23T00:43:17.316Z,127.27
2019-02-23T00:45:44.827Z,132.33
2019-02-23T00:48:12.461Z,126.23
2019-02-23T00:50:40.050Z,145.23
2019-02-23T00:53:07.814Z,127.40
2019-02-23T00:55:35.438Z,132.77
2019-02-23T00:58:03.101Z,131.47
2019-02-23T01:00:30.787Z,129.47
2019-02-23T01:02:58.470Z,137.33
2019-02-23T01:05:26.019Z,141.90
2019-02-23T01:07:53.441Z,131.97
2019-02-23T01:10:22.297Z,143.57
2019-02-23T01:12:49.981Z,121.17
2019-02-23T01:15:17.660Z,134.97
2019-02-23T01:17:45.239Z,136.13
2019-02-23T01:20:13.084Z,127.37
2019-02-23T01:22:40.814Z,132.03
2019-02-23T01:25:08.603Z,126.37
2019-02-23T01:27:36.432Z,130.37
2019-02-23T01:30:07.751Z,132.07
2019-02-23T01:32:35.386Z,131.30
2019-02-23T01:35:03.120Z,131.17
2019-02-23T01:37:30.663Z,135.47
2019-02-23T01:39:58.198Z,134.07
2019-02-23T01:42:25.743Z,136.93
2019-02-23T01:44:53.377Z,131.27
2019-02-23T01:47:21.018Z,138.60
2019-02-23T01:49:58.530Z,130.30
2019-02-23T01:52:18.033Z,127.20
2019-02-23T01:54:46.343Z,128.43
2019-02-23T01:57:13.728Z,134.63
2019-02-23T01:59:41.326Z,126.20
2019-02-23T02:02:09.265Z,133.13
2019-02-23T02:04:38.287Z,134.57
2019-02-23T02:07:06.323Z,127.70
2019-02-23T02:09:33.946Z,129.23
2019-02-23T02:12:01.493Z,128.33
2019-02-23T02:14:29.225Z,122.37
2019-02-23T02:16:56.664Z,145.27
2019-02-23T02:19:24.154Z,135.57
2019-02-23T02:21:51.687Z,133.97
2019-02-23T02:24:19.358Z,132.87
2019-02-23T02:26:46.694Z,132.67
2019-02-23T02:29:14.353Z,126.57
2019-02-23T02:31:41.854Z,122.87
2019-02-23T02:34:15.115Z,135.17
2019-02-23T02:36:42.696Z,132.30
2019-02-23T02:39:12.423Z,137.37
2019-02-23T02:41:40.186Z,135.00
2019-02-23T02:44:07.825Z,125.57
2019-02-23T02:46:35.218Z,128.57
2019-02-23T02:49:03.099Z,131.50
2019-02-23T02:51:30.447Z,129.80
2019-02-23T02:53:57.927Z,127.57
2019-02-23T02:56:25.626Z,137.63
2019-02-23T02:58:53.714Z,130.67
2019-02-23T03:01:21.614Z,131.50
2019-02-23T03:03:49.878Z,125.03
2019-02-23T03:06:19.233Z,139.93
2019-02-23T03:08:47.079Z,136.57
2019-02-23T03:11:15.360Z,132.43
2019-02-23T03:13:42.832Z,128.17
2019-02-23T03:16:37.008Z,141.20
2019-02-23T03:18:57.210Z,134.50
2019-02-23T03:21:24.665Z,135.43
2019-02-23T03:23:52.057Z,127.70
2019-02-23T03:26:19.626Z,130.80
2019-02-23T03:28:47.069Z,130.60
2019-02-23T03:31:14.656Z,140.50
2019-02-23T03:33:42.083Z,138.47
2019-02-23T03:36:09.684Z,131.90
2019-02-23T03:38:37.146Z,148.00
2019-02-23T03:41:04.625Z,138.00
2019-02-23T03:43:32.074Z,126.63
2019-02-23T03:45:59.684Z,142.87
2019-02-23T03:48:27.096Z,133.77
2019-02-23T03:50:54.622Z,140.97
2019-02-23T03:53:22.133Z,135.43
2019-02-23T03:55:49.713Z,140.13
2019-02-23T03:58:18.595Z,130.07
2019-02-23T04:00:46.451Z,145.23
2019-02-23T04:03:13.925Z,132.27
2019-02-23T04:05:41.562Z,145.93
2019-02-23T04:08:09.134Z,135.03
2019-02-23T04:10:36.801Z,144.47
2019-02-23T04:13:04.541Z,137.57
2019-02-23T04:15:32.276Z,152.90
2019-02-23T04:18:00.027Z,136.47
2019-02-23T04:20:27.456Z,135.37
2019-02-23T04:22:54.909Z,128.60
2019-02-23T04:25:22.422Z,146.50
2019-02-23T04:27:51.153Z,137.10
2019-02-23T04:30:18.717Z,143.50
2019-02-23T04:32:46.410Z,121.73
2019-02-23T04:35:13.937Z,138.10
2019-02-23T04:37:41.617Z,129.57
2019-02-23T04:40:09.422Z,133.80
2019-02-23T04:42:36.917Z,128.63
2019-02-23T04:45:04.923Z,137.03
2019-02-23T04:47:32.304Z,139.07
2019-02-23T04:49:59.697Z,133.30
2019-02-23T04:52:27.176Z,131.40
2019-02-23T04:54:54.800Z,135.23
2019-02-23T04:57:22.342Z,134.63
2019-02-23T04:59:49.963Z,129.13
2019-02-23T05:02:18.549Z,140.77
2019-02-23T05:04:46.142Z,134.10
2019-02-23T05:07:14.552Z,128.90
2019-02-23T05:09:42.043Z,128.80
2019-02-23T05:12:09.832Z,137.07
2019-02-23T05:14:37.404Z,138.70
2019-02-23T05:17:04.982Z,131.73
2019-02-23T05:19:32.467Z,134.73
2019-02-23T05:22:00.063Z,135.20
2019-02-23T05:24:27.753Z,150.37
2019-02-23T05:26:55.198Z,131.73
2019-02-23T05:29:22.708Z,135.50
2019-02-23T05:31:50.116Z,137.67
2019-02-23T05:34:17.540Z,151.57
2019-02-23T05:36:45.051Z,133.00
2019-02-23T05:39:13.094Z,150.40
2019-02-23T05:41:41.350Z,134.73
2019-02-23T05:44:08.947Z,143.30
2019-02-23T05:46:36.399Z,141.47
2019-02-23T05:49:03.936Z,135.20
2019-02-23T05:51:38.729Z,138.73
2019-02-23T05:54:00.950Z,134.07
2019-02-23T05:56:28.712Z,163.77
2019-02-23T05:58:56.142Z,140.97
2019-02-23T06:01:23.875Z,141.43
2019-02-23T06:03:51.722Z,142.03
2019-02-23T06:06:19.961Z,152.43
2019-02-23T06:08:47.406Z,138.40
2019-02-23T06:11:15.062Z,153.93
2019-02-23T06:13:42.533Z,138.67
2019-02-23T06:16:10.032Z,147.40
2019-02-23T06:18:37.663Z,146.40
2019-02-23T06:21:05.121Z,157.23
2019-02-23T06:23:32.745Z,148.70
2019-02-23T06:26:00.381Z,161.27
2019-02-23T06:28:27.920Z,143.40
2019-02-23T06:30:55.405Z,159.93
2019-02-23T06:33:22.886Z,155.67
2019-02-23T06:35:50.470Z,155.00
2019-02-23T06:38:18.093Z,150.43
2019-02-23T06:40:45.683Z,148.80
2019-02-23T06:43:14.091Z,147.13
2019-02-23T06:45:43.683Z,165.70
2019-02-23T06:48:13.406Z,163.33
2019-02-23T06:50:41.796Z,161.63
2019-02-23T06:53:09.313Z,155.93
2019-02-23T06:55:36.750Z,154.83
2019-02-23T06:58:04.207Z,144.60
2019-02-23T07:00:32.920Z,159.40
2019-02-23T07:03:01.238Z,146.43
2019-02-23T07:05:29.365Z,169.03
2019-02-23T07:07:56.773Z,151.77
2019-02-23T07:10:24.859Z,162.60
2019-02-23T07:12:52.469Z,147.27
2019-02-23T07:15:19.939Z,154.57
2019-02-23T07:17:48.869Z,147.37
2019-02-23T07:20:16.742Z,151.00
2019-02-23T07:22:44.782Z,152.33
2019-02-23T07:25:12.809Z,144.73
2019-02-23T07:27:40.782Z,143.20
2019-02-23T07:30:09.878Z,147.63
2019-02-23T07:32:37.572Z,137.57
2019-02-23T07:35:05.373Z,134.60
2019-02-23T07:37:32.991Z,135.60
2019-02-23T07:40:01.552Z,135.90
2019-02-23T07:42:29.308Z,143.13
2019-02-23T07:44:57.054Z,145.67
2019-02-23T07:47:25.035Z,143.00
2019-02-23T07:49:52.905Z,137.87
2019-02-23T07:52:26.279Z,145.03
2019-02-23T07:54:50.260Z,138.13
2019-02-23T07:57:17.986Z,141.97
2019-02-23T07:59:45.666Z,138.63
2019-02-23T08:02:13.187Z,140.53
2019-02-23T08:04:40.718Z,140.07
2019-02-23T08:07:08.376Z,139.77
2019-02-23T08:09:37.037Z,136.80
2019-02-23T08:12:04.613Z,137.33
2019-02-23T08:14:34.898Z,134.57
2019-02-23T08:17:02.693Z,131.93
2019-02-23T08:19:30.417Z,137.30
2019-02-23T08:21:57.829Z,135.87
2019-02-23T08:24:25.639Z,132.40
2019-02-23T08:26:53.333Z,137.47
2019-02-23T08:29:20.913Z,138.73
2019-02-23T08:31:48.555Z,140.40
2019-02-23T08:34:16.197Z,146.70
2019-02-23T08:36:43.800Z,138.03
2019-02-23T08:39:11.717Z,147.23
2019-02-23T08:41:39.206Z,138.70
2019-02-23T08:44:06.893Z,141.83
2019-02-23T08:46:34.503Z,137.00
2019-02-23T08:49:02.054Z,141.50
2019-02-23T08:51:29.547Z,141.50
2019-02-23T08:53:57.413Z,140.77
2019-02-23T08:56:24.882Z,153.13
2019-02-23T08:58:52.655Z,137.10
2019-02-23T09:01:20.166Z,141.20
2019-02-23T09:03:50.743Z,143.30
2019-02-23T09:06:18.376Z,142.53
2019-02-23T09:08:45.884Z,140.63
2019-02-23T09:11:13.465Z,151.40
2019-02-23T09:13:40.905Z,147.83
2019-02-23T09:16:08.468Z,155.73
2019-02-23T09:18:35.970Z,141.83
2019-02-23T09:21:03.597Z,146.77
2019-02-23T09:23:31.073Z,137.93
2019-02-23T09:25:58.877Z,149.53
2019-02-23T09:28:26.294Z,144.77
2019-02-23T09:31:09.026Z,147.40
2019-02-23T09:33:36.378Z,141.90
2019-02-23T09:36:04.018Z,145.47
2019-02-23T09:38:31.709Z,141.40
2019-02-23T09:40:59.379Z,147.30
2019-02-23T09:43:27.908Z,133.83
2019-02-23T09:45:55.521Z,150.73
2019-02-23T09:48:23.334Z,136.43
2019-02-23T09:50:50.997Z,146.77
2019-02-23T09:53:18.680Z,144.50
2019-02-23T09:55:46.508Z,149.97
2019-02-23T09:58:13.933Z,154.40
2019-02-23T10:00:41.672Z,156.60
2019-02-23T10:03:10.077Z,135.80
2019-02-23T10:05:38.317Z,146.10
2019-02-23T10:08:06.301Z,138.97
2019-02-23T10:10:33.948Z,161.50
2019-02-23T10:13:01.535Z,149.00
2019-02-23T10:15:29.406Z,151.30
2019-02-23T10:17:57.030Z,142.77
2019-02-23T10:20:24.623Z,154.63
2019-02-23T10:22:52.131Z,143.93
2019-02-23T10:25:19.744Z,164.03
2019-02-23T10:27:48.406Z,142.73
2019-02-23T10:30:16.204Z,148.60
2019-02-23T10:32:44.712Z,145.53
2019-02-23T10:35:12.924Z,151.93
2019-02-23T10:37:40.515Z,153.47
2019-02-23T10:40:08.962Z,151.73
2019-02-23T10:42:36.617Z,151.17
2019-02-23T10:45:05.439Z,147.47
2019-02-23T10:47:32.863Z,157.53
2019-02-23T10:50:02.407Z,148.47
2019-02-23T10:52:30.307Z,143.27
2019-02-23T10:54:57.861Z,155.10
2019-02-23T10:57:32.946Z,124.87
2019-02-23T11:00:08.007Z,130.43
2019-02-23T11:02:48.941Z,119.47
2019-02-23T11:05:24.188Z,123.50
2019-02-23T11:07:57.905Z,125.07
2019-02-23T11:10:37.886Z,135.97
2019-02-23T11:13:07.649Z,132.67
2019-02-23T11:15:45.971Z,131.43
2019-02-23T11:18:17.850Z,130.17
2019-02-23T11:20:58.762Z,130.20
2019-02-23T11:23:50.983Z,134.40
2019-02-23T11:26:31.592Z,125.17
2019-02-23T11:29:02.904Z,121.47
2019-02-23T11:31:33.968Z,121.10
2019-02-23T11:34:07.501Z,130.43
2019-02-23T11:36:44.901Z,124.80
2019-02-23T11:39:13.992Z,124.03
2019-02-23T11:42:30.000Z,138.40
2019-02-23T11:45:00.847Z,133.33
2019-02-23T11:47:39.215Z,131.17
2019-02-23T11:50:13.588Z,132.60
2019-02-23T11:52:42.628Z,132.97
2019-02-23T11:55:14.760Z,140.07
2019-02-23T11:57:47.828Z,139.73
2019-02-23T12:00:17.636Z,130.47
2019-02-23T12:02:52.622Z,132.20
2019-02-23T12:05:33.393Z,138.53
2019-02-23T12:08:05.775Z,131.60
2019-02-23T12:10:42.001Z,140.87
2019-02-23T12:13:10.538Z,166.07
2019-02-23T12:15:40.125Z,142.33
2019-02-23T12:18:10.076Z,135.67
2019-02-23T12:20:42.802Z,135.63
2019-02-23T12:23:24.410Z,134.17
2019-02-23T12:26:15.204Z,133.73
2019-02-23T12:28:47.478Z,131.63
2019-02-23T12:31:18.714Z,127.63
2019-02-23T12:34:09.329Z,136.30
2019-02-23T12:36:39.527Z,131.77
2019-02-23T12:39:10.023Z,134.33
2019-02-23T12:42:45.419Z,128.97
2019-02-23T12:45:42.938Z,135.63
2019-02-23T12:48:22.384Z,126.00
2019-02-23T12:50:56.047Z,130.97
2019-02-23T12:53:28.432Z,127.97
2019-02-23T12:55:57.909Z,136.03
2019-02-23T12:58:26.083Z,128.77
2019-02-23T13:00:55.320Z,135.33
2019-02-23T13:03:28.250Z,128.10
2019-02-23T13:05:57.309Z,133.53
2019-02-23T13:09:07.409Z,125.93
2019-02-23T13:11:38.734Z,121.23
2019-02-23T13:14:53.754Z,117.77
2019-02-23T13:18:31.967Z,123.83
2019-02-23T13:21:57.562Z,136.73
2019-02-23T13:25:33.852Z,121.67
2019-02-23T13:28:58.298Z,117.30
2019-02-23T13:32:26.852Z,122.70
2019-02-23T13:35:46.237Z,128.50
2019-02-23T13:39:21.418Z,112.17
2019-02-23T13:42:39.609Z,112.33
2019-02-23T13:45:56.735Z,124.73
2019-02-23T13:49:14.378Z,118.23
2019-02-23T13:51:59.950Z,115.30
2019-02-23T13:55:39.498Z,116.33
2019-02-23T13:59:00.715Z,124.17
2019-02-23T14:02:16.666Z,118.07
2019-02-23T14:05:36.184Z,120.93
2019-02-23T14:08:52.282Z,114.33
2019-02-23T14:12:21.185Z,119.10
2019-02-23T14:15:48.084Z,125.73
2019-02-23T14:19:14.970Z,126.53
2019-02-23T14:22:30.319Z,125.97
2019-02-23T14:25:31.802Z,127.17
2019-02-23T14:28:46.207Z,122.80
2019-02-23T14:32:20.428Z,131.93
2019-02-23T14:36:06.985Z,130.43
2019-02-23T14:40:20.845Z,119.90
2019-02-23T14:43:57.985Z,118.03
2019-02-23T14:47:56.041Z,122.27
2019-02-23T14:55:07.961Z,128.57
2019-02-23T14:58:29.114Z,125.80
2019-02-23T15:01:38.386Z,143.70
2019-02-23T15:04:44.504Z,123.33
2019-02-23T15:08:01.822Z,125.87
2019-02-23T15:11:52.426Z,124.63
2019-02-23T15:15:31.630Z,122.53
2019-02-23T15:18:51.403Z,121.27
2019-02-23T15:22:18.595Z,124.73
2019-02-23T15:25:22.676Z,119.07
2019-02-23T15:28:49.261Z,123.27
2019-02-23T15:31:56.566Z,123.13
2019-02-23T15:35:20.303Z,120.87
2019-02-23T15:38:41.924Z,122.47
2019-02-23T15:49:29.284Z,146.80
2019-02-23T15:52:16.311Z,124.50
2019-02-23T15:54:43.850Z,137.30
2019-02-23T15:57:11.275Z,134.00
2019-02-23T15:59:40.254Z,135.37
2019-02-23T16:02:08.030Z,129.93
2019-02-23T16:04:35.433Z,133.97
2019-02-23T16:07:03.181Z,129.80
2019-02-23T16:09:30.878Z,133.33
2019-02-23T16:11:58.935Z,128.40
2019-02-23T16:14:26.375Z,130.13
2019-02-23T16:16:53.877Z,135.70
2019-02-23T16:19:21.586Z,138.20
2019-02-23T16:21:49.045Z,131.33
2019-02-23T16:24:16.609Z,126.97
2019-02-23T16:26:44.577Z,130.07
2019-02-23T16:29:12.051Z,129.60
2019-02-23T16:31:39.711Z,136.07
2019-02-23T16:34:07.670Z,129.23
2019-02-23T16:36:35.260Z,139.53
2019-02-23T16:39:06.432Z,132.60
2019-02-23T16:41:35.659Z,127.97
2019-02-23T16:44:03.421Z,131.50
2019-02-23T16:46:31.046Z,132.80
2019-02-23T16:48:59.230Z,135.03
2019-02-23T16:51:26.932Z,133.23
2019-02-23T16:53:54.343Z,139.73
2019-02-23T16:56:21.967Z,126.50
2019-02-23T16:58:49.970Z,140.27
2019-02-23T17:01:17.427Z,129.07
2019-02-23T17:03:45.092Z,127.57
2019-02-23T17:06:12.945Z,130.67
2019-02-23T17:08:40.521Z,136.47
2019-02-23T17:11:07.952Z,128.33
2019-02-23T17:13:35.395Z,129.80
2019-02-23T17:16:02.958Z,131.90
2019-02-23T17:18:30.618Z,128.27
2019-02-23T17:20:58.347Z,129.37
2019-02-23T17:23:26.484Z,131.23
2019-02-23T17:26:03.723Z,136.10
2019-02-23T17:28:23.696Z,132.13
2019-02-23T17:30:51.291Z,127.37
2019-02-23T17:33:18.770Z,136.20
2019-02-23T17:35:46.370Z,137.63
2019-02-23T17:38:16.896Z,140.03
2019-02-23T17:40:43.432Z,143.63
2019-02-23T17:43:11.156Z,140.20
2019-02-23T17:45:38.957Z,153.13
2019-02-23T17:48:07.058Z,144.57
2019-02-23T17:50:35.451Z,141.27
2019-02-23T17:53:03.251Z,151.43
2019-02-23T17:55:31.755Z,135.40
2019-02-23T17:57:59.447Z,142.37
2019-02-23T18:00:27.910Z,140.00
2019-02-23T18:02:55.424Z,148.23
2019-02-23T18:05:22.869Z,143.87
2019-02-23T18:07:50.742Z,146.00
2019-02-23T18:10:18.267Z,144.27
2019-02-23T18:12:45.695Z,148.60
2019-02-23T18:15:13.518Z,150.67
2019-02-23T18:17:42.144Z,142.50
2019-02-23T18:20:11.371Z,152.67
2019-02-23T18:22:39.248Z,163.40
2019-02-23T18:25:07.204Z,151.60
2019-02-23T18:27:34.757Z,146.00
2019-02-23T18:30:10.750Z,153.63
2019-02-23T18:32:32.627Z,147.63
2019-02-23T18:35:00.579Z,144.93
2019-02-23T18:37:28.524Z,147.83
2019-02-23T18:39:56.057Z,156.10
2019-02-23T18:42:23.448Z,144.80
2019-02-23T18:44:51.102Z,148.73
2019-02-23T18:47:18.782Z,148.13
2019-02-23T18:49:46.579Z,157.90
2019-02-23T18:52:15.464Z,161.50
2019-02-23T18:54:47.567Z,163.13
2019-02-23T18:57:23.182Z,163.67
2019-02-23T18:59:57.918Z,166.13
2019-02-23T19:02:31.174Z,156.37
2019-02-23T19:05:06.539Z,175.97
2019-02-23T19:07:38.586Z,159.83
2019-02-23T19:10:13.865Z,167.90
2019-02-23T19:12:46.905Z,149.80
2019-02-23T19:15:20.447Z,147.87
2019-02-23T19:17:50.127Z,156.80
2019-02-23T19:20:20.788Z,154.23
2019-02-23T19:22:50.282Z,164.80
2019-02-23T19:25:20.780Z,156.50
2019-02-23T19:27:49.660Z,147.73
2019-02-23T19:30:19.725Z,150.93
2019-02-23T19:32:49.504Z,147.17
2019-02-23T19:35:19.546Z,161.57
2019-02-23T19:37:47.747Z,157.00
2019-02-23T19:40:15.404Z,149.53
2019-02-23T19:42:43.053Z,154.73
2019-02-23T19:45:10.881Z,154.47
2019-02-23T19:47:39.112Z,154.30
2019-02-23T19:50:12.658Z,157.17
2019-02-23T19:52:41.398Z,173.37
2019-02-23T19:55:11.422Z,151.73
2019-02-23T19:57:39.048Z,159.77
2019-02-23T20:00:06.947Z,156.37
2019-02-23T20:02:34.649Z,159.87
2019-02-23T20:05:02.332Z,157.10
2019-02-23T20:07:30.270Z,148.17
2019-02-23T20:09:58.514Z,158.63
2019-02-23T20:12:28.261Z,162.97
2019-02-23T20:14:57.047Z,170.27
2019-02-23T20:17:25.290Z,148.50
2019-02-23T20:19:52.920Z,162.33
2019-02-23T20:22:20.575Z,149.43
2019-02-23T20:24:49.130Z,160.37
2019-02-23T20:27:16.621Z,152.43
2019-02-23T20:29:44.204Z,178.17
2019-02-23T20:32:12.629Z,155.20
2019-02-23T20:34:42.367Z,180.47
2019-02-23T20:37:12.301Z,168.97
2019-02-23T20:39:42.743Z,175.27
2019-02-23T20:42:10.670Z,159.80
2019-02-23T20:44:41.174Z,183.73
2019-02-23T20:47:09.206Z,159.00
2019-02-23T20:49:36.824Z,174.23
2019-02-23T20:52:04.352Z,182.87
2019-02-23T20:54:32.201Z,170.63
2019-02-23T20:57:05.121Z,162.73
2019-02-23T20:59:31.258Z,179.33
2019-02-23T21:01:59.024Z,159.87
2019-02-23T21:04:26.974Z,162.07
2019-02-23T21:06:54.421Z,181.70
2019-02-23T21:09:22.271Z,164.90
2019-02-23T21:11:52.991Z,160.30
2019-02-23T21:14:22.385Z,168.97
2019-02-23T21:16:52.793Z,170.33
2019-02-23T21:19:20.415Z,162.53
2019-02-23T21:21:47.957Z,158.40
2019-02-23T21:24:15.670Z,176.27
2019-02-23T21:26:43.192Z,163.10
2019-02-23T21:29:10.873Z,178.43
2019-02-23T21:31:38.412Z,167.20
2019-02-23T21:34:06.200Z,184.40
2019-02-23T21:36:33.964Z,155.80
2019-02-23T21:39:03.325Z,169.17
2019-02-23T21:41:32.607Z,167.77
2019-02-23T21:44:00.307Z,187.63
2019-02-23T21:46:27.797Z,159.23
2019-02-23T21:48:55.389Z,166.90
2019-02-23T21:51:23.424Z,168.13
2019-02-23T21:53:51.089Z,163.83
2019-02-23T21:56:19.904Z,160.27
2019-02-23T21:58:48.502Z,162.40
2019-02-23T22:01:16.043Z,159.60
2019-02-23T22:03:43.705Z,161.80
2019-02-23T22:06:11.513Z,178.43
2019-02-23T22:08:39.024Z,176.73
2019-02-23T22:11:07.066Z,170.57
2019-02-23T22:13:34.439Z,155.27
2019-02-23T22:16:04.316Z,184.63
2019-02-23T22:18:31.802Z,168.30
2019-02-23T22:20:59.325Z,171.13
2019-02-23T22:23:26.989Z,181.07
2019-02-23T22:25:54.496Z,178.20
2019-02-23T22:28:22.030Z,174.03
2019-02-23T22:30:50.747Z,170.97
2019-02-23T22:33:18.403Z,183.60
2019-02-23T22:35:46.037Z,179.83
2019-02-23T22:38:13.594Z,183.37
2019-02-23T22:40:41.596Z,180.27
2019-02-23T22:43:09.096Z,175.57
2019-02-23T22:45:36.994Z,180.37
2019-02-23T22:48:04.627Z,174.90
2019-02-23T22:50:32.021Z,173.67
2019-02-23T22:52:59.662Z,187.83
2019-02-23T22:55:27.128Z,168.20
2019-02-23T22:57:54.509Z,178.03
2019-02-23T23:00:25.278Z,175.33
2019-02-23T23:02:56.284Z,177.60
2019-02-23T23:05:23.911Z,204.03
2019-02-23T23:07:51.900Z,199.10
2019-02-23T23:10:19.324Z,200.73
2019-02-23T23:12:46.722Z,209.40
2019-02-23T23:15:14.426Z,189.13
2019-02-23T23:17:44.938Z,184.67
2019-02-23T23:20:12.270Z,192.53
2019-02-23T23:22:39.813Z,198.40
2019-02-23T23:25:07.555Z,183.47
2019-02-23T23:27:37.973Z,195.17
2019-02-23T23:30:05.637Z,221.77
2019-02-23T23:32:33.382Z,198.70
2019-02-23T23:35:01.087Z,196.10
2019-02-23T23:37:28.596Z,203.20
2019-02-23T23:39:57.381Z,188.40
2019-02-23T23:42:25.572Z,191.63
2019-02-23T23:44:52.963Z,190.63
2019-02-23T23:47:20.544Z,185.03
2019-02-23T23:49:49.386Z,190.60
2019-02-23T23:52:16.827Z,187.77
2019-02-23T23:54:44.719Z,195.50
2019-02-23T23:57:12.247Z,182.57
2019-02-23T23:59:40.079Z,184.27
